Time;durP1;ratioP1;P1;durP2;ratioP2;P2;SDS_P1;SDS_P2;PMS_P1;PMS_P2;Temp;Humidity;BMP_temperature;BMP_pressure;BME280_temperature;BME280_humidity;BME280_pressure;Samples;Min_cycle;Max_cycle;Signal;HPM_P1;HPM_P2
2024/03/29 00:00:44;;;;;;;2.63;1.40;;;7.80;99.90;;;;;;4971231;28;20035;-54
2024/03/29 00:03:10;;;;;;;7.72;1.73;;;7.80;99.90;;;;;;4970488;28;20019;-54
2024/03/29 00:05:36;;;;;;;4.00;1.90;;;7.80;99.90;;;;;;4968763;28;20406;-54
2024/03/29 00:08:05;;;;;;;7.68;2.30;;;7.80;99.90;;;;;;4953264;28;20030;-53
2024/03/29 00:10:31;;;;;;;2.92;1.65;;;7.80;99.90;;;;;;4969852;28;20066;-55
2024/03/29 00:12:56;;;;;;;5.20;2.40;;;7.70;99.90;;;;;;4970456;28;20089;-52
2024/03/29 00:15:22;;;;;;;3.25;1.70;;;7.70;99.90;;;;;;4970218;28;20137;-46
2024/03/29 00:17:47;;;;;;;3.05;1.65;;;7.70;99.90;;;;;;4970583;28;20446;-52
2024/03/29 00:20:13;;;;;;;5.50;1.73;;;7.80;99.90;;;;;;4953039;28;20177;-54
2024/03/29 00:22:38;;;;;;;4.53;1.67;;;7.90;99.90;;;;;;4970211;28;20109;-50
2024/03/29 00:25:05;;;;;;;1.40;1.27;;;7.80;99.90;;;;;;4969637;28;20026;-53
2024/03/29 00:27:30;;;;;;;4.63;1.73;;;7.80;99.90;;;;;;4970940;28;20019;-54
2024/03/29 00:29:56;;;;;;;5.78;2.35;;;7.80;99.90;;;;;;4954547;28;20031;-53
2024/03/29 00:32:22;;;;;;;4.15;1.60;;;7.80;99.90;;;;;;4954671;28;20034;-53
2024/03/29 00:34:52;;;;;;;7.13;1.77;;;7.70;99.90;;;;;;4972398;28;20489;-51
2024/03/29 00:37:18;;;;;;;5.82;1.55;;;7.70;99.90;;;;;;4952968;28;20043;-50
2024/03/29 00:39:43;;;;;;;2.67;1.35;;;7.60;99.90;;;;;;4952852;28;20031;-50
2024/03/29 00:42:12;;;;;;;2.65;1.45;;;7.70;99.90;;;;;;4970048;28;20089;-54
2024/03/29 00:44:38;;;;;;;7.40;2.33;;;7.60;99.90;;;;;;4970358;28;20030;-48
2024/03/29 00:47:07;;;;;;;9.55;2.90;;;7.60;99.90;;;;;;4952715;28;20023;-51
2024/03/29 00:49:32;;;;;;;8.27;2.30;;;7.60;99.90;;;;;;4969778;28;20409;-51
2024/03/29 00:51:58;;;;;;;4.88;2.42;;;7.60;99.90;;;;;;4969460;28;20109;-53
2024/03/29 00:54:23;;;;;;;4.28;2.00;;;7.60;99.90;;;;;;4969819;28;20494;-50
2024/03/29 00:56:49;;;;;;;4.55;2.25;;;7.70;99.90;;;;;;4952620;28;20031;-53
2024/03/29 00:59:15;;;;;;;9.27;2.05;;;7.80;99.90;;;;;;4969845;28;20492;-53
2024/03/29 01:01:41;;;;;;;6.78;3.25;;;7.80;99.90;;;;;;4969495;28;20110;-52
2024/03/29 01:04:07;;;;;;;2.10;1.38;;;7.80;99.90;;;;;;4969440;28;20046;-50
2024/03/29 01:06:32;;;;;;;6.40;1.40;;;7.80;99.90;;;;;;4951890;28;20027;-52
2024/03/29 01:08:58;;;;;;;33.05;18.20;;;7.90;99.90;;;;;;4969477;28;20068;-51
2024/03/29 01:11:23;;;;;;;24.25;13.10;;;8.00;99.90;;;;;;4969502;28;20045;-50
2024/03/29 01:13:48;;;;;;;12.20;7.03;;;8.00;99.90;;;;;;4969891;28;20517;-52
2024/03/29 01:16:14;;;;;;;9.50;3.10;;;8.10;99.90;;;;;;4952316;28;20117;-54
2024/03/29 01:18:41;;;;;;;4.35;1.90;;;8.10;99.90;;;;;;4969094;28;20112;-49
2024/03/29 01:21:06;;;;;;;5.00;3.10;;;8.10;99.90;;;;;;4965660;28;20046;-50
2024/03/29 01:23:32;;;;;;;7.22;2.17;;;8.10;99.90;;;;;;4953557;28;20023;-51
2024/03/29 01:28:30;;;;;;;2.60;1.70;;;8.10;99.90;;;;;;4951042;28;20066;-52
2024/03/29 01:30:55;;;;;;;6.25;1.75;;;8.10;99.90;;;;;;4953867;28;20023;-49
2024/03/29 01:33:21;;;;;;;3.80;1.60;;;8.10;99.90;;;;;;4953038;29;20062;-50
2024/03/29 01:35:47;;;;;;;8.32;2.08;;;8.00;99.90;;;;;;4953953;29;20024;-48
2024/03/29 01:38:14;;;;;;;3.30;1.42;;;8.10;99.90;;;;;;4954384;28;20027;-51
2024/03/29 01:40:39;;;;;;;5.10;1.60;;;8.00;99.90;;;;;;4953832;28;20467;-51
2024/03/29 01:43:05;;;;;;;8.70;1.55;;;8.00;99.90;;;;;;4935803;29;20074;-49
2024/03/29 01:45:31;;;;;;;3.50;2.20;;;8.00;99.90;;;;;;4954114;28;20023;-51
2024/03/29 01:47:57;;;;;;;4.65;2.05;;;8.10;99.90;;;;;;4955650;28;20069;-55
2024/03/29 01:50:22;;;;;;;4.88;1.65;;;8.00;99.90;;;;;;4946486;29;20059;-55
2024/03/29 01:52:49;;;;;;;4.47;1.55;;;8.00;99.90;;;;;;4955321;29;20024;-53
2024/03/29 01:55:15;;;;;;;3.90;1.50;;;8.00;99.90;;;;;;4955378;28;20126;-49
2024/03/29 01:57:41;;;;;;;7.68;1.90;;;8.00;99.90;;;;;;4956247;28;20238;-54
2024/03/29 02:00:07;;;;;;;3.05;1.45;;;8.10;99.90;;;;;;4956612;28;20054;-55
2024/03/29 02:02:33;;;;;;;4.20;1.80;;;8.10;99.90;;;;;;4956173;29;20376;-55
2024/03/29 02:04:59;;;;;;;1.52;1.35;;;8.10;99.90;;;;;;4956678;29;20034;-57
2024/03/29 02:07:25;;;;;;;4.75;2.20;;;8.20;99.90;;;;;;4956447;28;20028;-54
2024/03/29 02:09:51;;;;;;;1.95;1.30;;;8.10;99.90;;;;;;4939224;29;20135;-57
2024/03/29 02:12:17;;;;;;;2.38;2.17;;;8.10;99.90;;;;;;4956287;28;20103;-50
2024/03/29 02:14:42;;;;;;;3.72;1.33;;;7.90;99.90;;;;;;4956308;29;20489;-55
2024/03/29 02:17:08;;;;;;;3.67;1.60;;;8.10;99.90;;;;;;4956418;28;20031;-52
2024/03/29 02:19:34;;;;;;;4.18;2.47;;;8.00;99.90;;;;;;4956116;29;20035;-54
2024/03/29 02:22:01;;;;;;;5.65;1.45;;;8.10;99.90;;;;;;4955931;28;20478;-52
2024/03/29 02:24:27;;;;;;;3.08;1.70;;;8.10;99.90;;;;;;4938993;29;20038;-56
2024/03/29 02:26:56;;;;;;;3.28;1.17;;;8.10;99.90;;;;;;4956142;28;20098;-55
2024/03/29 02:29:21;;;;;;;2.40;1.45;;;8.10;99.90;;;;;;4939078;29;20114;-55
2024/03/29 02:31:47;;;;;;;3.10;1.23;;;8.20;99.90;;;;;;4956113;28;20089;-53
2024/03/29 02:34:12;;;;;;;2.05;1.13;;;8.20;99.90;;;;;;4956371;28;20024;-52
2024/03/29 02:36:38;;;;;;;4.70;1.77;;;8.10;99.90;;;;;;4956099;28;20118;-57
2024/03/29 02:39:03;;;;;;;4.15;1.90;;;8.10;99.90;;;;;;4956106;29;20435;-52
2024/03/29 02:41:30;;;;;;;1.77;1.17;;;8.20;99.90;;;;;;4955975;28;20042;-53
2024/03/29 02:43:56;;;;;;;7.05;1.83;;;8.20;99.90;;;;;;4956254;28;20020;-52
2024/03/29 02:46:21;;;;;;;3.42;1.60;;;8.20;99.90;;;;;;4955896;28;20398;-56
2024/03/29 02:48:47;;;;;;;6.70;1.50;;;8.20;99.90;;;;;;4955966;29;20019;-54
2024/03/29 02:51:12;;;;;;;1.77;1.40;;;8.30;99.90;;;;;;4938713;29;20027;-60
2024/03/29 02:53:38;;;;;;;1.65;1.55;;;8.10;99.90;;;;;;4939065;29;20043;-54
2024/03/29 02:56:07;;;;;;;1.25;1.15;;;7.90;99.90;;;;;;4955825;28;20030;-57
2024/03/29 02:58:33;;;;;;;4.43;1.70;;;8.10;99.90;;;;;;4955533;28;20514;-54
2024/03/29 03:01:06;;;;;;;10.95;5.18;;;8.00;99.90;;;;;;4937721;29;20034;-57
2024/03/29 03:03:31;;;;;;;11.25;5.25;;;8.10;99.90;;;;;;4955574;28;20067;-56
2024/03/29 03:05:57;;;;;;;3.80;2.70;;;8.10;99.90;;;;;;4955485;28;20031;-55
2024/03/29 03:11:06;;;;;;;2.28;1.60;;;8.20;99.90;;;;;;4955502;29;20078;-54
2024/03/29 03:13:32;;;;;;;3.25;1.60;;;8.20;99.90;;;;;;4955280;28;20027;-55
2024/03/29 03:15:57;;;;;;;3.17;1.63;;;8.20;99.90;;;;;;4955351;28;20568;-57
2024/03/29 03:18:23;;;;;;;4.25;1.73;;;8.40;99.90;;;;;;4938290;29;20059;-55
2024/03/29 03:20:57;;;;;;;3.42;1.77;;;8.40;99.90;;;;;;4955224;28;20027;-56
2024/03/29 03:23:22;;;;;;;3.05;1.48;;;8.30;99.90;;;;;;4954988;29;20019;-55
2024/03/29 03:26:05;;;;;;;4.35;1.83;;;8.20;99.90;;;;;;4938193;29;20082;-55
2024/03/29 03:28:31;;;;;;;5.38;2.30;;;8.10;99.90;;;;;;4955363;28;20530;-52
2024/03/29 03:30:57;;;;;;;6.22;1.83;;;8.10;99.90;;;;;;4937877;29;20067;-54
2024/03/29 03:33:22;;;;;;;5.20;1.58;;;8.20;99.90;;;;;;4954908;28;20484;-55
2024/03/29 03:35:49;;;;;;;2.28;1.60;;;8.20;99.90;;;;;;4954795;29;20027;-56
2024/03/29 03:38:15;;;;;;;1.42;1.30;;;8.20;99.90;;;;;;4954918;28;20110;-50
2024/03/29 03:40:41;;;;;;;6.57;1.80;;;8.20;99.90;;;;;;4937801;29;20110;-53
2024/03/29 03:43:07;;;;;;;4.53;1.77;;;8.30;99.90;;;;;;4955504;28;20039;-58
2024/03/29 03:45:40;;;;;;;4.15;1.60;;;8.30;99.90;;;;;;4956645;29;20031;-57
2024/03/29 03:48:08;;;;;;;2.85;1.60;;;8.30;99.90;;;;;;4939689;29;20521;-55
2024/03/29 03:50:33;;;;;;;4.93;2.00;;;8.30;99.90;;;;;;4956635;28;20126;-58
2024/03/29 03:53:00;;;;;;;1.67;1.30;;;8.30;99.90;;;;;;4939245;29;20503;-58
2024/03/29 03:55:25;;;;;;;4.38;1.60;;;8.30;99.90;;;;;;4956344;29;20064;-55
2024/03/29 03:57:52;;;;;;;6.20;2.95;;;8.40;99.90;;;;;;4956137;28;20042;-58
2024/03/29 04:00:19;;;;;;;2.63;1.98;;;8.50;99.90;;;;;;4938443;29;20494;-56
2024/03/29 04:02:52;;;;;;;1.83;1.70;;;8.40;99.90;;;;;;4954466;29;20062;-56
2024/03/29 04:05:18;;;;;;;2.83;2.40;;;8.30;99.90;;;;;;4937527;29;20483;-52
2024/03/29 04:07:44;;;;;;;2.47;1.70;;;8.30;99.90;;;;;;4937112;29;20034;-56
2024/03/29 04:10:10;;;;;;;5.15;2.63;;;8.30;99.90;;;;;;4953709;28;20479;-53
2024/03/29 04:12:35;;;;;;;9.20;3.10;;;8.20;99.90;;;;;;4953948;29;20031;-56
2024/03/29 04:15:01;;;;;;;5.90;2.45;;;8.20;99.90;;;;;;4954299;29;20623;-56
2024/03/29 04:17:26;;;;;;;6.10;2.38;;;8.30;99.90;;;;;;4954380;28;20039;-51
2024/03/29 04:19:52;;;;;;;3.88;1.77;;;8.20;99.90;;;;;;4954199;28;20027;-50
2024/03/29 04:22:17;;;;;;;2.40;1.45;;;8.30;99.90;;;;;;4953858;29;20074;-53
2024/03/29 04:24:43;;;;;;;1.17;1.05;;;8.20;99.90;;;;;;4936847;29;20038;-52
2024/03/29 04:27:09;;;;;;;3.40;1.60;;;8.30;99.90;;;;;;4953958;28;20035;-52
2024/03/29 04:29:34;;;;;;;2.95;1.65;;;8.10;99.90;;;;;;4954518;28;20086;-53
2024/03/29 04:32:00;;;;;;;7.35;1.90;;;8.10;99.90;;;;;;4953867;29;20038;-55
2024/03/29 04:34:25;;;;;;;1.92;1.20;;;8.20;99.90;;;;;;4936740;29;20078;-52
2024/03/29 04:36:51;;;;;;;1.52;1.17;;;8.20;99.90;;;;;;4954208;28;20090;-52
2024/03/29 04:39:16;;;;;;;5.65;1.67;;;8.20;99.90;;;;;;4936718;29;20027;-57
2024/03/29 04:41:42;;;;;;;4.15;1.50;;;8.30;99.90;;;;;;4953550;29;20324;-55
2024/03/29 04:44:08;;;;;;;4.03;1.42;;;8.30;99.90;;;;;;4936333;29;20026;-53
2024/03/29 04:46:33;;;;;;;2.83;1.50;;;8.30;99.90;;;;;;4954038;28;20023;-53
2024/03/29 04:48:59;;;;;;;2.05;1.25;;;8.20;99.90;;;;;;4953758;29;20019;-54
2024/03/29 04:51:24;;;;;;;1.73;1.42;;;8.20;99.90;;;;;;4953523;29;20042;-52
2024/03/29 04:53:50;;;;;;;2.53;1.23;;;8.20;99.90;;;;;;4936676;29;20027;-51
2024/03/29 04:56:15;;;;;;;4.47;1.73;;;8.30;99.90;;;;;;4953649;28;20151;-51
2024/03/29 04:58:42;;;;;;;4.53;1.83;;;8.40;99.90;;;;;;4953758;29;20027;-54
2024/03/29 05:01:07;;;;;;;3.78;1.60;;;8.30;99.90;;;;;;4953259;28;20399;-57
2024/03/29 05:03:32;;;;;;;1.95;1.38;;;8.40;99.90;;;;;;4953399;29;20029;-53
2024/03/29 05:05:58;;;;;;;2.83;1.30;;;8.40;99.90;;;;;;4953499;28;20023;-54
2024/03/29 05:08:24;;;;;;;3.08;1.20;;;8.40;99.90;;;;;;4953451;29;20391;-54
2024/03/29 05:10:50;;;;;;;3.25;1.50;;;8.30;99.90;;;;;;4953595;28;20126;-56
2024/03/29 05:13:16;;;;;;;7.88;1.50;;;8.30;99.90;;;;;;4953247;29;20027;-55
2024/03/29 05:15:41;;;;;;;4.45;1.50;;;8.20;99.90;;;;;;4936291;29;20029;-54
2024/03/29 05:18:07;;;;;;;4.55;1.30;;;8.10;99.90;;;;;;4936251;29;20031;-53
2024/03/29 05:20:32;;;;;;;4.07;2.05;;;8.10;99.90;;;;;;4953127;29;20023;-52
2024/03/29 05:22:59;;;;;;;4.72;1.73;;;8.10;99.90;;;;;;4953856;28;20039;-54
2024/03/29 05:25:24;;;;;;;5.45;1.75;;;8.10;99.90;;;;;;4957388;29;20027;-53
2024/03/29 05:27:50;;;;;;;2.22;1.15;;;8.00;99.90;;;;;;4957159;28;20035;-54
2024/03/29 05:30:16;;;;;;;3.15;2.15;;;8.00;99.90;;;;;;4940128;29;20114;-51
2024/03/29 05:32:42;;;;;;;14.30;1.77;;;8.80;99.90;;;;;;4939834;29;20163;-53
2024/03/29 05:35:08;;;;;;;2.83;1.55;;;8.00;99.90;;;;;;4957205;29;20034;-51
2024/03/29 05:37:35;;;;;;;2.17;1.30;;;7.90;99.90;;;;;;4957037;28;20054;-55
2024/03/29 05:40:00;;;;;;;2.90;1.45;;;7.90;99.90;;;;;;4939897;29;20030;-55
2024/03/29 05:42:26;;;;;;;3.15;1.58;;;7.90;99.90;;;;;;4956741;28;20019;-54
2024/03/29 05:44:52;;;;;;;3.17;1.60;;;8.00;99.90;;;;;;4940126;29;20023;-52
2024/03/29 05:47:17;;;;;;;3.30;1.42;;;8.10;99.90;;;;;;4956790;28;20106;-55
2024/03/29 05:49:43;;;;;;;2.17;1.52;;;8.10;99.90;;;;;;4939580;29;20050;-52
2024/03/29 05:52:08;;;;;;;5.90;1.58;;;8.20;99.90;;;;;;4956626;28;20035;-55
2024/03/29 05:54:34;;;;;;;4.13;1.75;;;8.30;99.90;;;;;;4956849;28;20039;-54
2024/03/29 05:56:59;;;;;;;4.50;1.40;;;8.30;99.90;;;;;;4956682;28;20035;-52
2024/03/29 05:59:25;;;;;;;2.22;1.88;;;8.40;99.90;;;;;;4956800;29;20106;-55
2024/03/29 06:01:50;;;;;;;3.53;1.50;;;8.50;99.90;;;;;;4956129;28;20027;-55
2024/03/29 06:04:19;;;;;;;2.03;1.50;;;8.50;99.90;;;;;;4956567;29;20020;-52
2024/03/29 06:06:44;;;;;;;1.40;1.20;;;8.50;99.90;;;;;;4939342;29;20085;-52
2024/03/29 06:09:10;;;;;;;1.70;1.52;;;8.50;99.90;;;;;;4956530;29;20019;-52
2024/03/29 06:11:35;;;;;;;6.72;1.77;;;8.50;99.90;;;;;;4956245;28;20190;-57
2024/03/29 06:19:15;;;;;;;3.75;1.67;;;8.50;99.90;;;;;;4956742;28;20486;-57
2024/03/29 06:21:42;;;;;;;2.58;1.58;;;8.60;99.90;;;;;;4956300;28;20118;-56
2024/03/29 06:24:13;;;;;;;2.25;1.52;;;8.60;99.90;;;;;;4956509;28;20459;-53
2024/03/29 06:26:39;;;;;;;4.22;1.30;;;8.60;99.90;;;;;;4939047;29;20098;-54
2024/03/29 06:29:05;;;;;;;2.53;1.40;;;8.60;99.90;;;;;;4956009;29;20024;-56
2024/03/29 06:31:31;;;;;;;4.65;1.38;;;8.60;99.90;;;;;;4955906;29;20346;-53
2024/03/29 06:33:58;;;;;;;3.03;1.92;;;8.60;99.90;;;;;;4955791;28;20055;-55
2024/03/29 06:36:24;;;;;;;3.28;1.60;;;8.60;99.90;;;;;;4956466;28;20031;-55
2024/03/29 06:38:49;;;;;;;1.85;1.50;;;8.70;99.90;;;;;;4956228;28;20031;-55
2024/03/29 06:41:15;;;;;;;3.92;1.20;;;8.80;99.90;;;;;;4955848;28;20042;-55
2024/03/29 06:43:46;;;;;;;1.77;1.30;;;8.80;99.90;;;;;;4955988;28;20035;-55
2024/03/29 06:46:13;;;;;;;1.70;1.60;;;9.00;99.90;;;;;;4956006;28;20050;-55
2024/03/29 06:48:38;;;;;;;3.30;1.73;;;8.90;99.90;;;;;;4938771;29;20034;-55
2024/03/29 06:51:05;;;;;;;8.45;1.75;;;8.90;99.90;;;;;;4955836;29;20040;-52
2024/03/29 06:53:30;;;;;;;1.80;1.70;;;8.90;99.90;;;;;;4956363;28;20497;-49
2024/03/29 06:55:56;;;;;;;2.03;1.52;;;8.80;99.90;;;;;;4955670;28;20036;-54
2024/03/29 06:58:23;;;;;;;4.30;2.13;;;8.80;99.90;;;;;;4955756;29;20024;-54
2024/03/29 07:00:49;;;;;;;2.53;1.50;;;8.90;99.90;;;;;;4955543;29;20435;-53
2024/03/29 07:03:15;;;;;;;2.20;1.65;;;8.90;99.90;;;;;;4955334;29;20479;-52
2024/03/29 07:05:41;;;;;;;3.63;1.63;;;8.80;99.90;;;;;;4938112;29;20118;-51
2024/03/29 07:08:06;;;;;;;4.43;1.40;;;8.80;99.90;;;;;;4955544;28;20102;-55
2024/03/29 07:10:32;;;;;;;1.70;1.52;;;8.90;99.90;;;;;;4955723;28;20027;-55
2024/03/29 07:12:58;;;;;;;5.28;2.05;;;8.90;99.90;;;;;;4937993;29;20023;-52
2024/03/29 07:15:23;;;;;;;3.00;1.55;;;8.90;99.90;;;;;;4938472;29;20057;-51
2024/03/29 07:17:52;;;;;;;4.53;1.58;;;8.80;99.90;;;;;;4954506;28;20027;-51
2024/03/29 07:20:18;;;;;;;7.82;2.13;;;8.90;99.90;;;;;;4974699;28;20029;-50
2024/03/29 07:22:45;;;;;;;1.92;1.48;;;8.80;99.90;;;;;;4968236;28;20023;-48
2024/03/29 07:25:10;;;;;;;1.73;1.63;;;8.90;99.90;;;;;;4954081;28;20146;-53
2024/03/29 07:27:36;;;;;;;3.92;1.73;;;8.80;99.90;;;;;;4996812;23;20046;-50
2024/03/29 07:30:07;;;;;;;3.85;1.80;;;8.90;99.90;;;;;;5010571;28;20022;-52
2024/03/29 07:32:33;;;;;;;7.07;2.17;;;8.90;99.90;;;;;;4992702;28;20058;-46
2024/03/29 07:34:59;;;;;;;2.40;1.92;;;9.00;99.90;;;;;;4976400;28;20068;-55
2024/03/29 07:37:25;;;;;;;2.25;1.45;;;9.00;99.90;;;;;;5006989;28;20105;-52
2024/03/29 07:39:50;;;;;;;1.83;1.70;;;9.10;99.90;;;;;;5013202;28;20115;-47
2024/03/29 07:42:16;;;;;;;2.22;1.95;;;9.20;99.90;;;;;;5001305;28;20037;-53
2024/03/29 07:44:42;;;;;;;3.70;1.95;;;9.20;99.90;;;;;;4992893;28;20477;-46
2024/03/29 07:47:08;;;;;;;5.07;2.38;;;9.30;99.90;;;;;;4993410;28;20041;-47
2024/03/29 07:49:34;;;;;;;4.40;2.03;;;9.30;99.90;;;;;;4976603;28;20033;-53
2024/03/29 07:52:02;;;;;;;3.00;1.98;;;9.40;99.90;;;;;;4993568;28;20101;-49
2024/03/29 07:54:27;;;;;;;3.30;2.22;;;9.50;99.90;;;;;;4993704;28;20150;-48
2024/03/29 07:56:53;;;;;;;2.92;2.20;;;9.60;99.90;;;;;;4994295;28;20071;-52
2024/03/29 07:59:19;;;;;;;2.83;1.95;;;9.60;99.90;;;;;;4993363;28;20025;-45
2024/03/29 08:01:45;;;;;;;2.85;1.95;;;9.60;99.90;;;;;;4996141;28;20037;-47
2024/03/29 08:04:11;;;;;;;5.03;3.70;;;9.60;99.90;;;;;;5013331;28;20026;-47
2024/03/29 08:06:36;;;;;;;3.45;2.65;;;10.30;99.90;;;;;;5011544;28;20049;-55
2024/03/29 08:09:02;;;;;;;3.05;1.98;;;9.70;99.90;;;;;;4987524;28;20485;-50
2024/03/29 08:11:27;;;;;;;5.28;2.08;;;9.70;99.90;;;;;;4993408;28;20025;-48
2024/03/29 08:13:53;;;;;;;4.30;2.05;;;11.10;99.90;;;;;;4994203;28;20026;-47
2024/03/29 08:16:19;;;;;;;3.63;2.38;;;9.80;99.90;;;;;;4993057;28;20560;-50
2024/03/29 08:18:46;;;;;;;5.68;2.28;;;9.90;99.90;;;;;;4993275;28;20026;-50
2024/03/29 08:21:11;;;;;;;2.90;2.30;;;10.00;99.90;;;;;;4992951;28;20030;-53
2024/03/29 08:23:41;;;;;;;2.55;2.00;;;10.00;99.90;;;;;;4992469;28;20026;-48
2024/03/29 08:26:07;;;;;;;3.15;2.40;;;10.00;99.90;;;;;;4992842;28;20114;-51
2024/03/29 08:28:33;;;;;;;3.17;2.10;;;10.10;99.90;;;;;;4993014;28;20070;-52
2024/03/29 08:31:05;;;;;;;3.38;2.40;;;10.20;99.90;;;;;;4993128;28;20102;-53
2024/03/29 08:33:31;;;;;;;2.75;2.22;;;10.20;99.90;;;;;;4993291;28;20453;-48
2024/03/29 08:35:57;;;;;;;4.55;2.85;;;10.20;99.90;;;;;;4994303;28;20527;-51
2024/03/29 08:38:23;;;;;;;5.35;3.03;;;10.00;99.90;;;;;;4993089;28;20026;-51
2024/03/29 08:40:49;;;;;;;4.07;3.00;;;10.10;99.90;;;;;;4976338;28;20030;-51
2024/03/29 08:43:17;;;;;;;4.72;2.70;;;10.10;99.90;;;;;;4975145;28;20073;-52
2024/03/29 08:45:44;;;;;;;6.25;2.65;;;10.00;99.90;;;;;;4975151;28;20023;-52
2024/03/29 08:48:09;;;;;;;4.32;2.67;;;9.90;99.90;;;;;;4999099;28;20033;-50
2024/03/29 08:50:36;;;;;;;4.57;2.75;;;10.00;99.90;;;;;;5009961;28;20390;-46
2024/03/29 08:53:05;;;;;;;4.63;2.53;;;10.00;99.90;;;;;;5011714;28;20030;-52
2024/03/29 08:55:31;;;;;;;2.97;2.63;;;10.00;99.90;;;;;;4991275;28;20408;-50
2024/03/29 08:58:01;;;;;;;4.82;2.38;;;9.90;99.90;;;;;;5011701;28;20109;-47
2024/03/29 09:00:28;;;;;;;4.50;2.75;;;9.80;99.90;;;;;;4993895;28;20386;-46
2024/03/29 09:02:53;;;;;;;4.80;2.50;;;9.90;99.90;;;;;;5010123;28;20424;-46
2024/03/29 09:05:19;;;;;;;3.35;2.38;;;9.90;99.90;;;;;;5012123;28;20112;-52
2024/03/29 09:07:45;;;;;;;10.75;2.20;;;9.90;99.90;;;;;;5012050;28;20026;-48
2024/03/29 09:10:11;;;;;;;7.25;2.10;;;9.90;99.90;;;;;;5010098;28;20057;-48
2024/03/29 09:12:37;;;;;;;3.83;2.17;;;9.80;99.90;;;;;;5011803;28;20457;-54
2024/03/29 09:15:02;;;;;;;2.28;2.05;;;9.90;99.90;;;;;;5011679;28;20117;-52
2024/03/29 09:17:28;;;;;;;5.50;2.40;;;9.90;99.90;;;;;;5012034;28;20152;-49
2024/03/29 09:19:53;;;;;;;3.65;2.00;;;10.00;99.90;;;;;;4994189;28;20044;-47
2024/03/29 09:22:19;;;;;;;4.55;2.00;;;10.00;99.90;;;;;;5011370;28;20026;-48
2024/03/29 09:24:45;;;;;;;3.90;2.33;;;10.00;99.90;;;;;;4993793;28;20025;-49
2024/03/29 09:27:11;;;;;;;5.70;3.10;;;10.10;99.90;;;;;;5009780;28;20093;-47
2024/03/29 09:29:36;;;;;;;4.45;2.65;;;10.00;99.90;;;;;;5011796;28;20282;-51
2024/03/29 09:32:02;;;;;;;7.60;2.75;;;10.00;99.90;;;;;;5011573;28;20030;-48
2024/03/29 09:34:28;;;;;;;2.65;2.30;;;10.10;99.90;;;;;;4994182;28;20025;-49
2024/03/29 09:36:54;;;;;;;3.53;2.05;;;10.10;99.90;;;;;;5011565;28;20488;-45
2024/03/29 09:39:19;;;;;;;2.88;2.03;;;10.20;99.90;;;;;;5009571;28;20042;-48
2024/03/29 09:41:45;;;;;;;6.15;2.13;;;10.20;99.90;;;;;;5011196;28;20034;-46
2024/03/29 09:44:11;;;;;;;4.88;2.60;;;10.20;99.90;;;;;;4992960;28;20026;-45
2024/03/29 09:46:40;;;;;;;5.10;2.25;;;10.40;99.90;;;;;;5010577;28;20029;-45
2024/03/29 09:49:09;;;;;;;6.55;2.67;;;10.40;99.90;;;;;;4991572;28;20081;-51
2024/03/29 09:51:36;;;;;;;3.75;3.33;;;10.40;99.90;;;;;;4993735;28;20034;-50
2024/03/29 09:54:07;;;;;;;6.45;3.90;;;10.40;99.90;;;;;;5011636;28;20026;-47
2024/03/29 09:56:33;;;;;;;5.95;3.35;;;10.40;99.90;;;;;;5011064;28;20021;-46
2024/03/29 09:59:01;;;;;;;5.35;3.78;;;10.40;99.90;;;;;;5009383;28;20034;-46
2024/03/29 10:01:27;;;;;;;3.78;3.00;;;10.40;99.90;;;;;;5010939;28;20271;-48
2024/03/29 10:03:54;;;;;;;6.00;2.97;;;10.40;99.90;;;;;;5002838;28;20060;-45
2024/03/29 10:06:23;;;;;;;6.07;3.60;;;10.40;99.90;;;;;;4991649;28;20042;-46
2024/03/29 10:08:49;;;;;;;7.22;5.25;;;10.50;99.90;;;;;;4992699;28;20105;-49
2024/03/29 10:11:19;;;;;;;6.35;3.58;;;10.50;99.90;;;;;;4996279;28;20093;-48
2024/03/29 10:13:45;;;;;;;5.03;3.42;;;10.50;99.90;;;;;;4979031;28;20121;-51
2024/03/29 10:16:12;;;;;;;4.53;3.40;;;10.40;99.90;;;;;;4996322;28;20029;-47
2024/03/29 10:18:40;;;;;;;6.22;3.13;;;10.50;99.90;;;;;;4995059;28;20022;-48
2024/03/29 10:21:07;;;;;;;7.57;3.17;;;10.50;99.90;;;;;;4977407;28;20425;-47
2024/03/29 10:23:35;;;;;;;8.20;4.50;;;10.60;99.90;;;;;;4994854;28;20104;-51
2024/03/29 10:26:01;;;;;;;11.00;6.63;;;10.60;99.90;;;;;;4995587;28;20505;-47
2024/03/29 10:28:32;;;;;;;19.95;11.13;;;10.50;99.90;;;;;;4977324;28;20045;-45
2024/03/29 10:30:57;;;;;;;2.17;1.90;;;10.60;99.90;;;;;;4976880;28;20030;-48
2024/03/29 10:33:23;;;;;;;1.52;1.33;;;10.60;99.90;;;;;;4994095;28;20512;-50
2024/03/29 10:35:49;;;;;;;1.98;1.20;;;10.50;99.90;;;;;;4994414;28;20030;-45
2024/03/29 10:38:14;;;;;;;3.17;1.40;;;10.50;99.90;;;;;;4994206;28;20077;-47
2024/03/29 10:40:41;;;;;;;2.60;1.48;;;10.40;99.90;;;;;;4994291;28;20097;-45
2024/03/29 10:43:15;;;;;;;2.38;1.50;;;10.30;99.90;;;;;;4976526;28;20410;-44
2024/03/29 10:45:41;;;;;;;6.40;2.08;;;10.20;99.90;;;;;;4992273;28;20019;-46
2024/03/29 10:48:09;;;;;;;2.50;1.77;;;10.20;99.90;;;;;;4993950;28;20054;-46
2024/03/29 10:50:36;;;;;;;1.90;1.48;;;10.20;99.90;;;;;;4994418;28;20379;-49
2024/03/29 10:53:02;;;;;;;6.18;1.73;;;10.20;99.90;;;;;;4996995;28;20030;-49
2024/03/29 10:55:33;;;;;;;3.40;1.83;;;10.20;99.90;;;;;;4994156;28;20018;-54
2024/03/29 10:58:00;;;;;;;6.20;1.60;;;10.30;99.90;;;;;;4994372;28;20026;-50
2024/03/29 11:00:29;;;;;;;4.22;1.83;;;10.40;99.90;;;;;;4994093;28;20473;-52
2024/03/29 11:03:06;;;;;;;3.72;1.67;;;10.60;99.90;;;;;;4973778;28;20026;-48
2024/03/29 11:05:33;;;;;;;1.60;1.50;;;10.70;99.90;;;;;;4991045;28;20018;-46
2024/03/29 11:08:01;;;;;;;1.90;1.35;;;10.80;99.90;;;;;;4994232;28;20026;-50
2024/03/29 11:10:33;;;;;;;2.78;1.85;;;10.90;99.90;;;;;;4993801;28;20092;-48
2024/03/29 11:13:20;;;;;;;1.60;1.50;;;11.00;99.90;;;;;;4993964;28;20045;-50
2024/03/29 11:15:47;;;;;;;3.33;1.88;;;11.10;99.90;;;;;;4993294;28;20026;-47
2024/03/29 11:18:16;;;;;;;1.50;1.40;;;11.10;99.90;;;;;;4991888;28;20540;-50
2024/03/29 11:20:50;;;;;;;2.08;1.60;;;11.10;99.90;;;;;;4976607;28;20486;-44
2024/03/29 11:23:17;;;;;;;1.85;1.50;;;11.10;99.90;;;;;;4975441;28;20168;-45
2024/03/29 11:25:45;;;;;;;4.68;1.83;;;11.20;99.90;;;;;;4994418;28;20026;-47
2024/03/29 11:28:23;;;;;;;2.75;1.30;;;11.30;99.90;;;;;;4994212;28;20030;-47
2024/03/29 11:30:50;;;;;;;3.60;1.90;;;11.30;99.90;;;;;;4993826;28;20037;-46
2024/03/29 11:33:34;;;;;;;2.08;1.65;;;11.30;99.90;;;;;;4993806;28;20036;-52
2024/03/29 11:36:24;;;;;;;4.35;2.10;;;11.30;99.90;;;;;;4992199;28;20066;-51
2024/03/29 11:38:51;;;;;;;3.13;1.83;;;11.40;99.90;;;;;;4978127;28;20173;-55
2024/03/29 11:41:26;;;;;;;2.08;1.85;;;11.50;99.90;;;;;;4992915;28;20029;-48
2024/03/29 11:43:53;;;;;;;4.45;1.65;;;11.50;99.90;;;;;;4993124;28;20081;-50
2024/03/29 11:46:19;;;;;;;3.40;1.50;;;11.60;99.90;;;;;;4992956;28;20026;-43
2024/03/29 11:48:53;;;;;;;2.25;1.65;;;11.60;99.90;;;;;;4993126;28;20493;-44
2024/03/29 11:51:21;;;;;;;8.63;2.25;;;11.60;99.90;;;;;;4994796;28;20033;-46
2024/03/29 11:53:50;;;;;;;3.22;2.03;;;11.50;99.90;;;;;;4992574;28;20073;-49
2024/03/29 11:56:16;;;;;;;7.03;2.13;;;11.50;99.90;;;;;;4991305;28;20461;-47
2024/03/29 11:58:41;;;;;;;5.38;2.28;;;11.50;99.90;;;;;;4992225;28;20075;-46
2024/03/29 12:01:10;;;;;;;3.15;2.00;;;11.50;99.90;;;;;;4993005;28;20030;-46
2024/03/29 12:03:39;;;;;;;10.95;2.45;;;11.50;99.90;;;;;;4999485;28;20327;-45
2024/03/29 12:06:05;;;;;;;2.95;2.15;;;11.40;99.90;;;;;;4977451;28;20127;-50
2024/03/29 12:08:37;;;;;;;3.47;2.80;;;11.50;99.90;;;;;;4993333;28;20034;-50
2024/03/29 12:11:03;;;;;;;3.65;2.65;;;11.50;99.90;;;;;;4992523;28;20033;-46
2024/03/29 12:13:30;;;;;;;4.40;2.58;;;11.60;99.90;;;;;;5008894;28;20110;-47
2024/03/29 12:15:56;;;;;;;11.45;3.95;;;11.60;99.90;;;;;;4998694;28;20023;-46
2024/03/29 12:18:25;;;;;;;3.70;2.67;;;11.70;99.90;;;;;;4992902;28;20053;-51
2024/03/29 12:20:52;;;;;;;3.28;2.78;;;11.70;99.90;;;;;;4975275;28;20490;-45
2024/03/29 12:23:19;;;;;;;2.97;2.75;;;11.70;99.90;;;;;;4992503;28;20496;-49
2024/03/29 12:25:45;;;;;;;3.67;3.22;;;11.80;99.90;;;;;;4995645;28;20030;-44
2024/03/29 12:28:11;;;;;;;7.95;3.17;;;11.80;99.90;;;;;;4977339;28;20401;-50
2024/03/29 12:30:41;;;;;;;8.18;4.07;;;11.80;99.90;;;;;;4991419;28;20075;-53
2024/03/29 12:33:12;;;;;;;8.18;3.45;;;11.80;99.90;;;;;;4991991;28;20088;-50
2024/03/29 12:35:38;;;;;;;5.60;2.80;;;11.60;99.90;;;;;;4992203;28;20033;-46
2024/03/29 12:38:06;;;;;;;3.22;2.97;;;11.90;99.90;;;;;;4992295;28;20032;-51
2024/03/29 12:40:35;;;;;;;3.53;3.22;;;12.00;99.90;;;;;;4992355;28;20548;-52
2024/03/29 12:43:04;;;;;;;14.48;3.88;;;12.00;99.90;;;;;;4992217;28;20034;-50
2024/03/29 12:45:31;;;;;;;6.22;3.45;;;12.00;99.90;;;;;;4991968;28;20026;-49
2024/03/29 12:47:56;;;;;;;5.20;3.67;;;12.00;99.90;;;;;;4992250;28;20533;-48
2024/03/29 12:50:27;;;;;;;4.70;3.38;;;12.00;99.90;;;;;;4992145;28;20033;-49
2024/03/29 12:53:05;;;;;;;5.65;3.63;;;11.90;99.90;;;;;;4991844;28;20022;-45
2024/03/29 12:55:34;;;;;;;4.72;3.03;;;11.90;99.90;;;;;;4991594;28;20446;-47
2024/03/29 12:58:00;;;;;;;4.90;3.20;;;11.90;99.90;;;;;;4992832;28;20026;-47
2024/03/29 13:00:27;;;;;;;4.55;3.15;;;12.00;99.90;;;;;;4992722;28;20054;-52